sensor_id;sensor_type;location;lat;lon;timestamp;P1;durP1;ratioP1;P2;durP2;ratioP2
17592;SDS011;8915;51.760;14.300;2023-11-21T00:00:49;10.20;;;3.83;;
17592;SDS011;8915;51.760;14.300;2023-11-21T00:03:15;5.20;;;3.77;;
17592;SDS011;8915;51.760;14.300;2023-11-21T00:05:43;10.37;;;4.20;;
17592;SDS011;8915;51.760;14.300;2023-11-21T00:08:10;10.20;;;4.10;;
17592;SDS011;8915;51.760;14.300;2023-11-21T00:10:36;17.40;;;4.90;;
17592;SDS011;8915;51.760;14.300;2023-11-21T00:13:04;9.37;;;4.90;;
17592;SDS011;8915;51.760;14.300;2023-11-21T00:15:30;13.10;;;5.30;;
17592;SDS011;8915;51.760;14.300;2023-11-21T00:17:56;14.40;;;4.83;;
17592;SDS011;8915;51.760;14.300;2023-11-21T00:20:23;12.03;;;4.63;;
17592;SDS011;8915;51.760;14.300;2023-11-21T00:22:50;14.70;;;4.43;;
17592;SDS011;8915;51.760;14.300;2023-11-21T00:25:17;14.40;;;4.60;;
17592;SDS011;8915;51.760;14.300;2023-11-21T00:27:43;10.53;;;5.07;;
17592;SDS011;8915;51.760;14.300;2023-11-21T00:30:11;14.27;;;6.17;;
17592;SDS011;8915;51.760;14.300;2023-11-21T00:32:38;13.23;;;5.43;;
17592;SDS011;8915;51.760;14.300;2023-11-21T00:35:05;13.50;;;5.07;;
17592;SDS011;8915;51.760;14.300;2023-11-21T00:37:32;11.97;;;5.80;;
17592;SDS011;8915;51.760;14.300;2023-11-21T00:40:00;17.00;;;5.37;;
17592;SDS011;8915;51.760;14.300;2023-11-21T00:42:31;11.90;;;4.93;;
17592;SDS011;8915;51.760;14.300;2023-11-21T00:44:58;16.17;;;5.23;;
17592;SDS011;8915;51.760;14.300;2023-11-21T00:47:25;11.07;;;5.30;;
17592;SDS011;8915;51.760;14.300;2023-11-21T00:49:51;13.93;;;5.63;;
17592;SDS011;8915;51.760;14.300;2023-11-21T00:52:18;16.47;;;5.60;;
17592;SDS011;8915;51.760;14.300;2023-11-21T00:54:45;16.13;;;5.80;;
17592;SDS011;8915;51.760;14.300;2023-11-21T00:57:14;12.10;;;5.50;;
17592;SDS011;8915;51.760;14.300;2023-11-21T00:59:41;24.83;;;6.47;;
17592;SDS011;8915;51.760;14.300;2023-11-21T01:02:08;13.03;;;5.30;;
17592;SDS011;8915;51.760;14.300;2023-11-21T01:04:35;16.57;;;5.87;;
17592;SDS011;8915;51.760;14.300;2023-11-21T01:07:02;18.30;;;5.80;;
17592;SDS011;8915;51.760;14.300;2023-11-21T01:09:30;12.87;;;6.50;;
17592;SDS011;8915;51.760;14.300;2023-11-21T01:11:57;12.93;;;6.47;;
17592;SDS011;8915;51.760;14.300;2023-11-21T01:14:26;13.83;;;5.77;;
17592;SDS011;8915;51.760;14.300;2023-11-21T01:16:52;15.93;;;6.30;;
17592;SDS011;8915;51.760;14.300;2023-11-21T01:19:18;15.47;;;6.07;;
17592;SDS011;8915;51.760;14.300;2023-11-21T01:21:45;16.13;;;5.87;;
17592;SDS011;8915;51.760;14.300;2023-11-21T01:24:12;17.57;;;5.90;;
17592;SDS011;8915;51.760;14.300;2023-11-21T01:26:38;18.00;;;6.07;;
17592;SDS011;8915;51.760;14.300;2023-11-21T01:29:04;14.23;;;5.87;;
17592;SDS011;8915;51.760;14.300;2023-11-21T01:31:32;19.10;;;6.50;;
17592;SDS011;8915;51.760;14.300;2023-11-21T01:33:59;21.60;;;5.90;;
17592;SDS011;8915;51.760;14.300;2023-11-21T01:36:29;16.60;;;5.73;;
17592;SDS011;8915;51.760;14.300;2023-11-21T01:38:58;21.40;;;7.17;;
17592;SDS011;8915;51.760;14.300;2023-11-21T01:41:25;18.47;;;6.17;;
17592;SDS011;8915;51.760;14.300;2023-11-21T01:43:53;21.70;;;6.53;;
17592;SDS011;8915;51.760;14.300;2023-11-21T01:46:21;14.80;;;7.03;;
17592;SDS011;8915;51.760;14.300;2023-11-21T01:48:50;15.10;;;5.80;;
17592;SDS011;8915;51.760;14.300;2023-11-21T01:51:18;17.67;;;6.40;;
17592;SDS011;8915;51.760;14.300;2023-11-21T01:53:45;18.20;;;6.27;;
17592;SDS011;8915;51.760;14.300;2023-11-21T01:56:12;19.57;;;6.30;;
17592;SDS011;8915;51.760;14.300;2023-11-21T01:58:39;13.03;;;5.63;;
17592;SDS011;8915;51.760;14.300;2023-11-21T02:01:06;19.63;;;6.40;;
17592;SDS011;8915;51.760;14.300;2023-11-21T02:03:32;18.07;;;5.67;;
17592;SDS011;8915;51.760;14.300;2023-11-21T02:06:00;19.73;;;6.63;;
17592;SDS011;8915;51.760;14.300;2023-11-21T02:08:26;17.00;;;5.93;;
17592;SDS011;8915;51.760;14.300;2023-11-21T02:10:53;12.47;;;5.50;;
17592;SDS011;8915;51.760;14.300;2023-11-21T02:13:19;14.97;;;5.40;;
17592;SDS011;8915;51.760;14.300;2023-11-21T02:15:45;14.77;;;5.47;;
17592;SDS011;8915;51.760;14.300;2023-11-21T02:18:14;18.27;;;6.33;;
17592;SDS011;8915;51.760;14.300;2023-11-21T02:20:41;12.50;;;5.97;;
17592;SDS011;8915;51.760;14.300;2023-11-21T02:23:09;20.43;;;6.27;;
17592;SDS011;8915;51.760;14.300;2023-11-21T02:25:35;14.73;;;5.57;;
17592;SDS011;8915;51.760;14.300;2023-11-21T02:28:03;17.53;;;6.03;;
17592;SDS011;8915;51.760;14.300;2023-11-21T02:30:30;14.00;;;5.40;;
17592;SDS011;8915;51.760;14.300;2023-11-21T02:32:57;16.37;;;5.67;;
17592;SDS011;8915;51.760;14.300;2023-11-21T02:35:24;13.40;;;5.20;;
17592;SDS011;8915;51.760;14.300;2023-11-21T02:37:51;13.33;;;5.90;;
17592;SDS011;8915;51.760;14.300;2023-11-21T02:40:19;19.63;;;6.53;;
17592;SDS011;8915;51.760;14.300;2023-11-21T02:42:46;14.50;;;5.47;;
17592;SDS011;8915;51.760;14.300;2023-11-21T02:45:13;12.97;;;5.57;;
17592;SDS011;8915;51.760;14.300;2023-11-21T02:47:41;12.50;;;5.63;;
17592;SDS011;8915;51.760;14.300;2023-11-21T02:50:08;10.17;;;5.43;;
17592;SDS011;8915;51.760;14.300;2023-11-21T02:52:35;19.13;;;6.10;;
17592;SDS011;8915;51.760;14.300;2023-11-21T02:55:01;15.20;;;5.90;;
17592;SDS011;8915;51.760;14.300;2023-11-21T02:57:32;12.03;;;5.63;;
17592;SDS011;8915;51.760;14.300;2023-11-21T02:59:59;16.53;;;6.50;;
17592;SDS011;8915;51.760;14.300;2023-11-21T03:02:26;14.57;;;5.37;;
17592;SDS011;8915;51.760;14.300;2023-11-21T03:04:52;15.27;;;6.13;;
17592;SDS011;8915;51.760;14.300;2023-11-21T03:07:19;17.80;;;6.20;;
17592;SDS011;8915;51.760;14.300;2023-11-21T03:09:45;19.23;;;5.93;;
17592;SDS011;8915;51.760;14.300;2023-11-21T03:12:11;12.97;;;5.30;;
17592;SDS011;8915;51.760;14.300;2023-11-21T03:14:39;17.13;;;5.73;;
17592;SDS011;8915;51.760;14.300;2023-11-21T03:17:06;15.27;;;5.77;;
17592;SDS011;8915;51.760;14.300;2023-11-21T03:19:32;15.33;;;5.97;;
17592;SDS011;8915;51.760;14.300;2023-11-21T03:21:59;16.43;;;6.77;;
17592;SDS011;8915;51.760;14.300;2023-11-21T03:24:25;14.23;;;5.30;;
17592;SDS011;8915;51.760;14.300;2023-11-21T03:26:52;17.03;;;6.10;;
17592;SDS011;8915;51.760;14.300;2023-11-21T03:29:18;17.23;;;6.20;;
17592;SDS011;8915;51.760;14.300;2023-11-21T03:31:46;17.60;;;6.67;;
17592;SDS011;8915;51.760;14.300;2023-11-21T03:34:15;16.97;;;5.50;;
17592;SDS011;8915;51.760;14.300;2023-11-21T03:36:43;18.17;;;6.47;;
17592;SDS011;8915;51.760;14.300;2023-11-21T03:39:11;16.73;;;6.70;;
17592;SDS011;8915;51.760;14.300;2023-11-21T03:41:37;13.43;;;5.93;;
17592;SDS011;8915;51.760;14.300;2023-11-21T03:44:04;21.83;;;6.77;;
17592;SDS011;8915;51.760;14.300;2023-11-21T03:46:30;21.03;;;7.00;;
17592;SDS011;8915;51.760;14.300;2023-11-21T03:48:58;9.93;;;5.47;;
17592;SDS011;8915;51.760;14.300;2023-11-21T03:51:24;18.93;;;6.20;;
17592;SDS011;8915;51.760;14.300;2023-11-21T03:53:51;18.47;;;6.00;;
17592;SDS011;8915;51.760;14.300;2023-11-21T03:56:17;14.60;;;6.27;;
17592;SDS011;8915;51.760;14.300;2023-11-21T03:58:43;11.33;;;5.70;;
17592;SDS011;8915;51.760;14.300;2023-11-21T04:01:10;12.60;;;5.80;;
17592;SDS011;8915;51.760;14.300;2023-11-21T04:03:36;19.40;;;6.07;;
17592;SDS011;8915;51.760;14.300;2023-11-21T04:06:05;20.57;;;6.07;;
17592;SDS011;8915;51.760;14.300;2023-11-21T04:08:32;17.73;;;5.73;;
17592;SDS011;8915;51.760;14.300;2023-11-21T04:10:59;15.20;;;5.77;;
17592;SDS011;8915;51.760;14.300;2023-11-21T04:13:26;17.90;;;5.60;;
17592;SDS011;8915;51.760;14.300;2023-11-21T04:15:52;13.73;;;5.50;;
17592;SDS011;8915;51.760;14.300;2023-11-21T04:18:19;16.50;;;5.43;;
17592;SDS011;8915;51.760;14.300;2023-11-21T04:20:45;18.40;;;6.40;;
17592;SDS011;8915;51.760;14.300;2023-11-21T04:23:13;14.77;;;5.67;;
17592;SDS011;8915;51.760;14.300;2023-11-21T04:25:40;17.13;;;5.00;;
17592;SDS011;8915;51.760;14.300;2023-11-21T04:28:06;16.93;;;6.27;;
17592;SDS011;8915;51.760;14.300;2023-11-21T04:30:32;18.47;;;5.50;;
17592;SDS011;8915;51.760;14.300;2023-11-21T04:32:59;9.43;;;5.47;;
17592;SDS011;8915;51.760;14.300;2023-11-21T04:35:25;15.50;;;5.90;;
17592;SDS011;8915;51.760;14.300;2023-11-21T04:37:51;13.37;;;5.30;;
17592;SDS011;8915;51.760;14.300;2023-11-21T04:40:19;13.50;;;4.57;;
17592;SDS011;8915;51.760;14.300;2023-11-21T04:42:45;11.80;;;5.00;;
17592;SDS011;8915;51.760;14.300;2023-11-21T04:45:12;14.10;;;5.57;;
17592;SDS011;8915;51.760;14.300;2023-11-21T04:47:38;13.23;;;5.67;;
17592;SDS011;8915;51.760;14.300;2023-11-21T04:50:05;17.73;;;5.50;;
17592;SDS011;8915;51.760;14.300;2023-11-21T04:52:32;14.13;;;5.20;;
17592;SDS011;8915;51.760;14.300;2023-11-21T04:54:58;12.83;;;5.23;;
17592;SDS011;8915;51.760;14.300;2023-11-21T04:57:28;15.53;;;6.43;;
17592;SDS011;8915;51.760;14.300;2023-11-21T04:59:54;15.37;;;6.20;;
17592;SDS011;8915;51.760;14.300;2023-11-21T05:02:20;15.70;;;6.03;;
17592;SDS011;8915;51.760;14.300;2023-11-21T05:04:47;23.37;;;6.30;;
17592;SDS011;8915;51.760;14.300;2023-11-21T05:07:13;12.73;;;6.07;;
17592;SDS011;8915;51.760;14.300;2023-11-21T05:09:41;15.60;;;5.93;;
17592;SDS011;8915;51.760;14.300;2023-11-21T05:12:09;7.37;;;4.10;;
17592;SDS011;8915;51.760;14.300;2023-11-21T05:14:37;4.80;;;2.57;;
17592;SDS011;8915;51.760;14.300;2023-11-21T05:17:03;2.40;;;1.97;;
17592;SDS011;8915;51.760;14.300;2023-11-21T05:19:30;2.57;;;1.93;;
17592;SDS011;8915;51.760;14.300;2023-11-21T05:21:57;2.70;;;1.87;;
17592;SDS011;8915;51.760;14.300;2023-11-21T05:24:24;2.57;;;1.97;;
17592;SDS011;8915;51.760;14.300;2023-11-21T05:26:50;2.40;;;2.00;;
17592;SDS011;8915;51.760;14.300;2023-11-21T05:29:17;2.30;;;1.50;;
17592;SDS011;8915;51.760;14.300;2023-11-21T05:31:45;2.17;;;1.60;;
17592;SDS011;8915;51.760;14.300;2023-11-21T05:34:12;4.10;;;1.53;;
17592;SDS011;8915;51.760;14.300;2023-11-21T05:36:38;1.30;;;1.13;;
17592;SDS011;8915;51.760;14.300;2023-11-21T05:39:04;4.17;;;1.40;;
17592;SDS011;8915;51.760;14.300;2023-11-21T05:41:31;2.47;;;1.87;;
17592;SDS011;8915;51.760;14.300;2023-11-21T05:43:57;1.90;;;1.37;;
17592;SDS011;8915;51.760;14.300;2023-11-21T05:46:23;2.10;;;1.70;;
17592;SDS011;8915;51.760;14.300;2023-11-21T05:48:51;2.70;;;1.50;;
17592;SDS011;8915;51.760;14.300;2023-11-21T05:51:17;2.50;;;2.10;;
17592;SDS011;8915;51.760;14.300;2023-11-21T05:53:44;4.50;;;3.03;;
17592;SDS011;8915;51.760;14.300;2023-11-21T05:56:11;3.40;;;2.60;;
17592;SDS011;8915;51.760;14.300;2023-11-21T05:58:38;3.87;;;3.20;;
17592;SDS011;8915;51.760;14.300;2023-11-21T06:01:05;4.37;;;3.10;;
17592;SDS011;8915;51.760;14.300;2023-11-21T06:03:32;4.30;;;3.00;;
17592;SDS011;8915;51.760;14.300;2023-11-21T06:06:00;4.77;;;3.50;;
17592;SDS011;8915;51.760;14.300;2023-11-21T06:08:26;4.53;;;3.30;;
17592;SDS011;8915;51.760;14.300;2023-11-21T06:10:53;5.20;;;3.90;;
17592;SDS011;8915;51.760;14.300;2023-11-21T06:13:20;6.50;;;3.67;;
17592;SDS011;8915;51.760;14.300;2023-11-21T06:15:49;5.87;;;3.80;;
17592;SDS011;8915;51.760;14.300;2023-11-21T06:18:16;6.90;;;3.60;;
17592;SDS011;8915;51.760;14.300;2023-11-21T06:20:44;6.50;;;4.10;;
17592;SDS011;8915;51.760;14.300;2023-11-21T06:23:12;5.67;;;3.87;;
17592;SDS011;8915;51.760;14.300;2023-11-21T06:25:39;7.40;;;5.07;;
17592;SDS011;8915;51.760;14.300;2023-11-21T06:28:05;8.57;;;5.10;;
17592;SDS011;8915;51.760;14.300;2023-11-21T06:30:32;6.83;;;4.90;;
17592;SDS011;8915;51.760;14.300;2023-11-21T06:32:58;8.40;;;4.97;;
17592;SDS011;8915;51.760;14.300;2023-11-21T06:35:26;11.30;;;5.67;;
17592;SDS011;8915;51.760;14.300;2023-11-21T06:37:52;10.90;;;5.10;;
17592;SDS011;8915;51.760;14.300;2023-11-21T06:40:20;8.90;;;5.63;;
17592;SDS011;8915;51.760;14.300;2023-11-21T06:42:46;10.70;;;5.47;;
17592;SDS011;8915;51.760;14.300;2023-11-21T06:45:13;9.50;;;6.03;;
17592;SDS011;8915;51.760;14.300;2023-11-21T06:47:40;11.57;;;6.40;;
17592;SDS011;8915;51.760;14.300;2023-11-21T06:50:06;12.30;;;6.20;;
17592;SDS011;8915;51.760;14.300;2023-11-21T06:52:33;12.13;;;6.13;;
17592;SDS011;8915;51.760;14.300;2023-11-21T06:55:00;13.37;;;6.70;;
17592;SDS011;8915;51.760;14.300;2023-11-21T06:57:28;14.63;;;7.13;;
17592;SDS011;8915;51.760;14.300;2023-11-21T06:59:54;16.20;;;6.63;;
17592;SDS011;8915;51.760;14.300;2023-11-21T07:02:22;14.47;;;6.67;;
17592;SDS011;8915;51.760;14.300;2023-11-21T07:04:48;10.60;;;6.07;;
17592;SDS011;8915;51.760;14.300;2023-11-21T07:07:15;11.40;;;6.40;;
17592;SDS011;8915;51.760;14.300;2023-11-21T07:09:41;14.00;;;6.30;;
17592;SDS011;8915;51.760;14.300;2023-11-21T07:12:08;12.23;;;6.37;;
17592;SDS011;8915;51.760;14.300;2023-11-21T07:14:36;11.90;;;5.90;;
17592;SDS011;8915;51.760;14.300;2023-11-21T07:17:04;16.10;;;8.70;;
17592;SDS011;8915;51.760;14.300;2023-11-21T07:19:31;21.83;;;11.20;;
17592;SDS011;8915;51.760;14.300;2023-11-21T07:21:58;31.17;;;11.93;;
17592;SDS011;8915;51.760;14.300;2023-11-21T07:24:24;27.53;;;12.17;;
17592;SDS011;8915;51.760;14.300;2023-11-21T07:26:51;33.87;;;14.07;;
17592;SDS011;8915;51.760;14.300;2023-11-21T07:29:22;34.27;;;13.93;;
17592;SDS011;8915;51.760;14.300;2023-11-21T07:31:51;35.20;;;15.67;;
17592;SDS011;8915;51.760;14.300;2023-11-21T07:34:18;38.87;;;14.70;;
17592;SDS011;8915;51.760;14.300;2023-11-21T07:36:45;45.37;;;15.27;;
17592;SDS011;8915;51.760;14.300;2023-11-21T07:39:11;35.63;;;14.00;;
17592;SDS011;8915;51.760;14.300;2023-11-21T07:41:40;41.93;;;15.40;;
17592;SDS011;8915;51.760;14.300;2023-11-21T07:44:10;38.30;;;15.07;;
17592;SDS011;8915;51.760;14.300;2023-11-21T07:46:36;42.40;;;14.27;;
17592;SDS011;8915;51.760;14.300;2023-11-21T07:49:04;34.30;;;14.57;;
17592;SDS011;8915;51.760;14.300;2023-11-21T07:51:30;38.37;;;14.10;;
17592;SDS011;8915;51.760;14.300;2023-11-21T07:53:57;31.47;;;13.87;;
17592;SDS011;8915;51.760;14.300;2023-11-21T07:56:23;27.83;;;12.07;;
17592;SDS011;8915;51.760;14.300;2023-11-21T07:58:49;33.97;;;12.40;;
17592;SDS011;8915;51.760;14.300;2023-11-21T08:01:16;33.10;;;12.67;;
17592;SDS011;8915;51.760;14.300;2023-11-21T08:03:42;28.93;;;12.63;;
17592;SDS011;8915;51.760;14.300;2023-11-21T08:06:10;28.93;;;12.90;;
17592;SDS011;8915;51.760;14.300;2023-11-21T08:08:37;34.97;;;12.23;;
17592;SDS011;8915;51.760;14.300;2023-11-21T08:11:03;26.17;;;12.43;;
17592;SDS011;8915;51.760;14.300;2023-11-21T08:13:30;23.73;;;12.03;;
17592;SDS011;8915;51.760;14.300;2023-11-21T08:15:56;24.47;;;11.80;;
17592;SDS011;8915;51.760;14.300;2023-11-21T08:18:26;29.90;;;12.33;;
17592;SDS011;8915;51.760;14.300;2023-11-21T08:20:54;22.10;;;11.27;;
17592;SDS011;8915;51.760;14.300;2023-11-21T08:23:22;23.80;;;11.67;;
17592;SDS011;8915;51.760;14.300;2023-11-21T08:25:50;21.20;;;11.73;;
17592;SDS011;8915;51.760;14.300;2023-11-21T08:28:17;24.17;;;10.20;;
17592;SDS011;8915;51.760;14.300;2023-11-21T08:30:44;23.80;;;11.27;;
17592;SDS011;8915;51.760;14.300;2023-11-21T08:33:10;19.93;;;10.33;;
17592;SDS011;8915;51.760;14.300;2023-11-21T08:35:38;22.97;;;9.90;;
17592;SDS011;8915;51.760;14.300;2023-11-21T08:38:04;26.47;;;12.37;;
17592;SDS011;8915;51.760;14.300;2023-11-21T08:40:32;24.27;;;10.57;;
17592;SDS011;8915;51.760;14.300;2023-11-21T08:42:59;21.47;;;10.60;;
17592;SDS011;8915;51.760;14.300;2023-11-21T08:45:25;25.37;;;11.33;;
17592;SDS011;8915;51.760;14.300;2023-11-21T08:47:52;24.97;;;11.10;;
17592;SDS011;8915;51.760;14.300;2023-11-21T08:50:18;24.53;;;11.87;;
17592;SDS011;8915;51.760;14.300;2023-11-21T08:52:45;26.47;;;10.77;;
17592;SDS011;8915;51.760;14.300;2023-11-21T08:55:13;26.40;;;12.27;;
17592;SDS011;8915;51.760;14.300;2023-11-21T08:57:41;27.60;;;11.80;;
17592;SDS011;8915;51.760;14.300;2023-11-21T09:00:10;21.10;;;11.73;;
17592;SDS011;8915;51.760;14.300;2023-11-21T09:02:37;28.57;;;12.13;;
17592;SDS011;8915;51.760;14.300;2023-11-21T09:05:06;25.87;;;11.30;;
17592;SDS011;8915;51.760;14.300;2023-11-21T09:07:34;30.73;;;13.30;;
17592;SDS011;8915;51.760;14.300;2023-11-21T09:10:00;26.40;;;12.87;;
17592;SDS011;8915;51.760;14.300;2023-11-21T09:12:27;26.40;;;12.93;;
17592;SDS011;8915;51.760;14.300;2023-11-21T09:14:54;26.03;;;12.63;;
17592;SDS011;8915;51.760;14.300;2023-11-21T09:17:21;28.13;;;11.40;;
17592;SDS011;8915;51.760;14.300;2023-11-21T09:19:47;29.73;;;14.47;;
17592;SDS011;8915;51.760;14.300;2023-11-21T09:22:16;32.23;;;15.30;;
17592;SDS011;8915;51.760;14.300;2023-11-21T09:24:43;24.47;;;13.37;;
17592;SDS011;8915;51.760;14.300;2023-11-21T09:27:10;26.37;;;11.67;;
17592;SDS011;8915;51.760;14.300;2023-11-21T09:29:36;24.80;;;12.27;;
17592;SDS011;8915;51.760;14.300;2023-11-21T09:32:05;20.90;;;10.43;;
17592;SDS011;8915;51.760;14.300;2023-11-21T09:34:33;20.97;;;10.27;;
17592;SDS011;8915;51.760;14.300;2023-11-21T09:37:01;19.80;;;9.63;;
17592;SDS011;8915;51.760;14.300;2023-11-21T09:39:30;19.10;;;10.63;;
17592;SDS011;8915;51.760;14.300;2023-11-21T09:41:58;18.87;;;9.70;;
17592;SDS011;8915;51.760;14.300;2023-11-21T09:44:32;17.13;;;9.60;;
17592;SDS011;8915;51.760;14.300;2023-11-21T09:47:02;20.73;;;9.87;;
17592;SDS011;8915;51.760;14.300;2023-11-21T09:49:31;22.57;;;11.47;;
17592;SDS011;8915;51.760;14.300;2023-11-21T09:52:00;20.10;;;9.77;;
17592;SDS011;8915;51.760;14.300;2023-11-21T09:54:29;19.07;;;10.50;;
17592;SDS011;8915;51.760;14.300;2023-11-21T09:56:57;21.43;;;10.70;;
17592;SDS011;8915;51.760;14.300;2023-11-21T09:59:24;17.83;;;10.30;;
17592;SDS011;8915;51.760;14.300;2023-11-21T10:01:56;17.77;;;10.23;;
17592;SDS011;8915;51.760;14.300;2023-11-21T10:04:25;15.80;;;10.17;;
17592;SDS011;8915;51.760;14.300;2023-11-21T10:06:53;16.90;;;9.33;;
17592;SDS011;8915;51.760;14.300;2023-11-21T10:09:20;17.17;;;8.70;;
17592;SDS011;8915;51.760;14.300;2023-11-21T10:11:47;20.47;;;9.33;;
17592;SDS011;8915;51.760;14.300;2023-11-21T10:14:15;17.40;;;9.97;;
17592;SDS011;8915;51.760;14.300;2023-11-21T10:16:45;18.83;;;10.07;;
17592;SDS011;8915;51.760;14.300;2023-11-21T10:19:14;18.03;;;9.37;;
17592;SDS011;8915;51.760;14.300;2023-11-21T10:21:41;16.20;;;8.97;;
17592;SDS011;8915;51.760;14.300;2023-11-21T10:24:09;14.50;;;8.10;;
17592;SDS011;8915;51.760;14.300;2023-11-21T10:26:37;15.53;;;8.43;;
17592;SDS011;8915;51.760;14.300;2023-11-21T10:29:04;14.30;;;7.60;;
17592;SDS011;8915;51.760;14.300;2023-11-21T10:31:31;14.83;;;8.07;;
17592;SDS011;8915;51.760;14.300;2023-11-21T10:34:11;13.43;;;8.10;;
17592;SDS011;8915;51.760;14.300;2023-11-21T10:36:38;17.20;;;8.30;;
17592;SDS011;8915;51.760;14.300;2023-11-21T10:39:05;15.87;;;7.73;;
17592;SDS011;8915;51.760;14.300;2023-11-21T10:41:33;13.07;;;7.73;;
17592;SDS011;8915;51.760;14.300;2023-11-21T10:44:00;15.10;;;8.17;;
17592;SDS011;8915;51.760;14.300;2023-11-21T10:46:29;15.83;;;7.63;;
17592;SDS011;8915;51.760;14.300;2023-11-21T10:48:55;13.10;;;6.93;;
17592;SDS011;8915;51.760;14.300;2023-11-21T10:51:22;14.70;;;7.23;;
17592;SDS011;8915;51.760;14.300;2023-11-21T10:53:49;11.50;;;6.37;;
17592;SDS011;8915;51.760;14.300;2023-11-21T10:56:16;13.23;;;6.70;;
17592;SDS011;8915;51.760;14.300;2023-11-21T10:58:47;11.77;;;6.60;;
17592;SDS011;8915;51.760;14.300;2023-11-21T11:01:15;11.20;;;6.00;;
17592;SDS011;8915;51.760;14.300;2023-11-21T11:03:46;11.30;;;4.97;;
17592;SDS011;8915;51.760;14.300;2023-11-21T11:06:13;11.90;;;4.83;;
17592;SDS011;8915;51.760;14.300;2023-11-21T11:08:40;8.90;;;4.80;;
17592;SDS011;8915;51.760;14.300;2023-11-21T11:11:07;7.77;;;4.90;;
17592;SDS011;8915;51.760;14.300;2023-11-21T11:13:34;11.20;;;6.13;;
17592;SDS011;8915;51.760;14.300;2023-11-21T11:16:03;12.63;;;6.80;;
17592;SDS011;8915;51.760;14.300;2023-11-21T11:18:32;13.10;;;6.83;;
17592;SDS011;8915;51.760;14.300;2023-11-21T11:21:00;12.20;;;6.40;;
17592;SDS011;8915;51.760;14.300;2023-11-21T11:23:37;11.63;;;5.30;;
17592;SDS011;8915;51.760;14.300;2023-11-21T11:26:14;9.83;;;5.13;;
17592;SDS011;8915;51.760;14.300;2023-11-21T11:28:51;6.90;;;4.13;;
17592;SDS011;8915;51.760;14.300;2023-11-21T11:31:25;8.83;;;4.90;;
17592;SDS011;8915;51.760;14.300;2023-11-21T11:34:06;7.97;;;4.93;;
17592;SDS011;8915;51.760;14.300;2023-11-21T11:36:42;8.30;;;4.87;;
17592;SDS011;8915;51.760;14.300;2023-11-21T11:39:29;4.70;;;3.40;;
17592;SDS011;8915;51.760;14.300;2023-11-21T11:41:56;5.63;;;3.00;;
17592;SDS011;8915;51.760;14.300;2023-11-21T11:47:23;3.90;;;2.87;;
17592;SDS011;8915;51.760;14.300;2023-11-21T11:50:03;6.17;;;3.93;;
17592;SDS011;8915;51.760;14.300;2023-11-21T11:52:34;4.53;;;2.83;;
17592;SDS011;8915;51.760;14.300;2023-11-21T11:55:00;5.70;;;2.73;;
17592;SDS011;8915;51.760;14.300;2023-11-21T11:57:29;5.77;;;2.90;;
17592;SDS011;8915;51.760;14.300;2023-11-21T12:00:09;4.10;;;2.67;;
17592;SDS011;8915;51.760;14.300;2023-11-21T12:02:42;3.03;;;2.30;;
17592;SDS011;8915;51.760;14.300;2023-11-21T12:05:13;5.80;;;2.50;;
17592;SDS011;8915;51.760;14.300;2023-11-21T12:07:47;3.20;;;2.40;;
17592;SDS011;8915;51.760;14.300;2023-11-21T12:10:15;4.40;;;2.60;;
17592;SDS011;8915;51.760;14.300;2023-11-21T12:12:43;5.57;;;2.97;;
17592;SDS011;8915;51.760;14.300;2023-11-21T12:15:11;7.83;;;2.80;;
17592;SDS011;8915;51.760;14.300;2023-11-21T12:17:38;3.10;;;2.40;;
17592;SDS011;8915;51.760;14.300;2023-11-21T12:20:07;5.37;;;3.00;;
17592;SDS011;8915;51.760;14.300;2023-11-21T12:22:41;3.07;;;2.17;;
17592;SDS011;8915;51.760;14.300;2023-11-21T12:25:09;4.97;;;2.83;;
17592;SDS011;8915;51.760;14.300;2023-11-21T12:27:35;2.63;;;2.07;;
17592;SDS011;8915;51.760;14.300;2023-11-21T12:30:01;3.13;;;1.93;;
17592;SDS011;8915;51.760;14.300;2023-11-21T12:32:28;3.13;;;1.73;;
17592;SDS011;8915;51.760;14.300;2023-11-21T12:34:54;5.23;;;2.03;;
17592;SDS011;8915;51.760;14.300;2023-11-21T12:37:22;2.50;;;1.70;;
17592;SDS011;8915;51.760;14.300;2023-11-21T12:39:48;3.37;;;1.90;;
17592;SDS011;8915;51.760;14.300;2023-11-21T12:42:15;3.67;;;2.23;;
17592;SDS011;8915;51.760;14.300;2023-11-21T12:44:42;3.43;;;2.10;;
17592;SDS011;8915;51.760;14.300;2023-11-21T12:47:15;3.47;;;2.17;;
17592;SDS011;8915;51.760;14.300;2023-11-21T12:49:43;6.50;;;2.60;;
17592;SDS011;8915;51.760;14.300;2023-11-21T12:52:09;4.53;;;3.13;;
17592;SDS011;8915;51.760;14.300;2023-11-21T12:54:38;6.00;;;3.30;;
17592;SDS011;8915;51.760;14.300;2023-11-21T12:57:04;6.47;;;3.10;;
17592;SDS011;8915;51.760;14.300;2023-11-21T12:59:33;5.53;;;3.30;;
17592;SDS011;8915;51.760;14.300;2023-11-21T13:01:59;6.07;;;3.70;;
17592;SDS011;8915;51.760;14.300;2023-11-21T13:04:30;5.53;;;3.40;;
17592;SDS011;8915;51.760;14.300;2023-11-21T13:07:02;7.90;;;3.77;;
17592;SDS011;8915;51.760;14.300;2023-11-21T13:09:31;4.67;;;3.17;;
17592;SDS011;8915;51.760;14.300;2023-11-21T13:12:00;5.93;;;3.87;;
17592;SDS011;8915;51.760;14.300;2023-11-21T13:14:29;5.97;;;4.07;;
17592;SDS011;8915;51.760;14.300;2023-11-21T13:16:56;6.27;;;3.80;;
17592;SDS011;8915;51.760;14.300;2023-11-21T13:19:23;5.03;;;3.40;;
17592;SDS011;8915;51.760;14.300;2023-11-21T13:21:49;6.97;;;4.07;;
17592;SDS011;8915;51.760;14.300;2023-11-21T13:24:16;7.53;;;4.53;;
17592;SDS011;8915;51.760;14.300;2023-11-21T13:26:43;7.03;;;4.50;;
17592;SDS011;8915;51.760;14.300;2023-11-21T13:29:12;6.23;;;4.17;;
17592;SDS011;8915;51.760;14.300;2023-11-21T13:31:38;6.77;;;4.10;;
17592;SDS011;8915;51.760;14.300;2023-11-21T13:34:04;5.73;;;4.20;;
17592;SDS011;8915;51.760;14.300;2023-11-21T13:36:33;7.40;;;4.40;;
17592;SDS011;8915;51.760;14.300;2023-11-21T13:39:00;6.53;;;4.77;;
17592;SDS011;8915;51.760;14.300;2023-11-21T13:41:32;6.67;;;4.43;;
17592;SDS011;8915;51.760;14.300;2023-11-21T13:43:58;6.50;;;4.47;;
17592;SDS011;8915;51.760;14.300;2023-11-21T13:46:35;8.57;;;5.10;;
17592;SDS011;8915;51.760;14.300;2023-11-21T13:49:02;6.53;;;4.47;;
17592;SDS011;8915;51.760;14.300;2023-11-21T13:51:30;6.27;;;4.80;;
17592;SDS011;8915;51.760;14.300;2023-11-21T13:54:04;6.07;;;4.80;;
17592;SDS011;8915;51.760;14.300;2023-11-21T13:56:34;7.17;;;5.30;;
17592;SDS011;8915;51.760;14.300;2023-11-21T13:59:00;6.53;;;4.90;;
17592;SDS011;8915;51.760;14.300;2023-11-21T14:01:35;7.00;;;5.13;;
17592;SDS011;8915;51.760;14.300;2023-11-21T14:04:19;6.07;;;4.87;;
17592;SDS011;8915;51.760;14.300;2023-11-21T14:06:59;6.20;;;4.80;;
17592;SDS011;8915;51.760;14.300;2023-11-21T14:09:39;5.97;;;4.30;;
17592;SDS011;8915;51.760;14.300;2023-11-21T14:12:08;8.03;;;4.80;;
17592;SDS011;8915;51.760;14.300;2023-11-21T14:14:37;5.80;;;4.50;;
17592;SDS011;8915;51.760;14.300;2023-11-21T14:17:05;5.33;;;4.63;;
17592;SDS011;8915;51.760;14.300;2023-11-21T14:19:32;8.03;;;5.27;;
17592;SDS011;8915;51.760;14.300;2023-11-21T14:21:59;6.93;;;5.27;;
17592;SDS011;8915;51.760;14.300;2023-11-21T14:24:26;7.77;;;6.07;;
17592;SDS011;8915;51.760;14.300;2023-11-21T14:26:54;8.37;;;6.10;;
17592;SDS011;8915;51.760;14.300;2023-11-21T14:29:21;8.47;;;6.17;;
17592;SDS011;8915;51.760;14.300;2023-11-21T14:31:48;8.20;;;6.03;;
17592;SDS011;8915;51.760;14.300;2023-11-21T14:34:17;7.40;;;5.57;;
17592;SDS011;8915;51.760;14.300;2023-11-21T14:36:44;9.07;;;6.00;;
17592;SDS011;8915;51.760;14.300;2023-11-21T14:39:10;9.70;;;6.43;;
17592;SDS011;8915;51.760;14.300;2023-11-21T14:41:47;7.97;;;5.17;;